createdAt,value
2022-08-16T00:01:33.944Z,24.52
2022-08-16T00:04:05.261Z,24.53
2022-08-16T00:06:33.416Z,24.56
2022-08-16T00:09:01.252Z,24.57
2022-08-16T00:11:29.127Z,24.55
2022-08-16T00:13:57.864Z,24.53
2022-08-16T00:17:01.536Z,24.52
2022-08-16T00:19:28.449Z,24.55
2022-08-16T00:22:12.857Z,24.64
2022-08-16T00:24:46.945Z,24.71
2022-08-16T00:27:15.750Z,24.74
2022-08-16T00:29:45.790Z,24.75
2022-08-16T00:32:18.196Z,24.73
2022-08-16T00:34:52.619Z,24.63
2022-08-16T00:37:57.274Z,24.51
2022-08-16T00:40:34.143Z,24.40
2022-08-16T00:43:19.311Z,24.38
2022-08-16T00:46:33.533Z,24.38
2022-08-16T00:48:54.289Z,24.33
2022-08-16T00:51:25.263Z,24.33
2022-08-16T00:53:57.880Z,24.37
2022-08-16T00:56:57.113Z,24.39
2022-08-16T00:59:24.770Z,24.36
2022-08-16T01:01:54.761Z,24.35
2022-08-16T01:04:29.791Z,24.32
2022-08-16T01:07:05.171Z,24.23
2022-08-16T01:09:42.972Z,24.21
2022-08-16T01:12:26.280Z,24.25
2022-08-16T01:14:59.132Z,24.32
2022-08-16T01:17:36.713Z,24.42
2022-08-16T01:20:24.010Z,24.44
2022-08-16T01:23:58.438Z,24.39
2022-08-16T01:26:34.814Z,24.41
2022-08-16T01:29:12.518Z,24.53
2022-08-16T01:31:42.831Z,24.60
2022-08-16T01:34:22.809Z,24.65
2022-08-16T01:37:09.083Z,24.71
2022-08-16T01:39:37.424Z,24.80
2022-08-16T01:42:12.910Z,24.88
2022-08-16T01:44:43.465Z,24.91
2022-08-16T01:47:12.014Z,24.86
2022-08-16T01:50:40.851Z,24.79
2022-08-16T01:52:31.380Z,24.72
2022-08-16T01:55:01.704Z,24.74
2022-08-16T01:57:31.753Z,24.80
2022-08-16T02:00:01.876Z,24.83
2022-08-16T02:02:30.249Z,24.84
2022-08-16T02:05:00.465Z,24.82
2022-08-16T02:07:28.861Z,24.82
2022-08-16T02:09:59.862Z,24.84
2022-08-16T02:12:40.183Z,24.90
2022-08-16T02:15:25.947Z,24.97
2022-08-16T02:17:57.729Z,25.04
2022-08-16T02:20:29.158Z,25.09
2022-08-16T02:23:00.161Z,25.14
2022-08-16T02:25:52.874Z,25.14
2022-08-16T02:28:19.614Z,25.04
2022-08-16T02:30:51.630Z,25.00
2022-08-16T02:33:24.463Z,24.95
2022-08-16T02:36:14.330Z,24.84
2022-08-16T02:38:42.728Z,24.79
2022-08-16T02:41:12.251Z,24.78
2022-08-16T02:43:41.079Z,24.75
2022-08-16T02:46:10.120Z,24.71
2022-08-16T02:48:39.765Z,24.71
2022-08-16T02:51:17.265Z,24.75
2022-08-16T02:53:48.531Z,24.83
2022-08-16T02:56:18.963Z,24.89
2022-08-16T02:58:50.779Z,24.97
2022-08-16T03:01:36.881Z,25.05
2022-08-16T03:04:39.449Z,25.12
2022-08-16T03:06:57.121Z,25.18
2022-08-16T03:09:28.861Z,25.26
2022-08-16T03:12:02.447Z,25.32
2022-08-16T03:14:31.207Z,25.35
2022-08-16T03:17:02.029Z,25.36
2022-08-16T03:19:46.953Z,25.37
2022-08-16T03:22:28.184Z,25.34
2022-08-16T03:25:01.649Z,25.32
2022-08-16T03:27:33.484Z,25.31
2022-08-16T03:30:15.186Z,25.29
2022-08-16T03:32:51.539Z,25.27
2022-08-16T03:35:32.741Z,25.29
2022-08-16T03:38:05.042Z,25.30
2022-08-16T03:40:54.270Z,25.29
2022-08-16T03:43:24.484Z,25.28
2022-08-16T03:46:12.561Z,25.14
2022-08-16T03:49:00.639Z,24.98
2022-08-16T03:51:30.276Z,24.87
2022-08-16T03:54:01.212Z,24.80
2022-08-16T03:56:30.354Z,24.77
2022-08-16T03:58:58.870Z,24.77
2022-08-16T04:01:29.121Z,24.83
2022-08-16T04:03:57.425Z,24.86
2022-08-16T04:06:25.401Z,24.90
2022-08-16T04:08:54.769Z,25.10
2022-08-16T04:11:23.835Z,25.44
2022-08-16T04:14:01.097Z,25.86
2022-08-16T04:16:41.641Z,26.09
2022-08-16T04:19:09.434Z,26.09
2022-08-16T04:21:45.672Z,26.11
2022-08-16T04:24:14.910Z,26.24
2022-08-16T04:26:46.112Z,26.51
2022-08-16T04:29:23.752Z,26.90
2022-08-16T04:31:55.640Z,27.63
2022-08-16T04:34:28.017Z,28.28
2022-08-16T04:37:01.465Z,28.40
2022-08-16T04:39:45.694Z,28.48
2022-08-16T04:42:17.892Z,28.65
2022-08-16T04:44:53.572Z,28.83
2022-08-16T04:47:31.304Z,29.08
2022-08-16T04:50:15.646Z,29.39
2022-08-16T04:52:47.930Z,29.65
2022-08-16T04:55:31.956Z,29.81
2022-08-16T04:58:45.275Z,29.99
2022-08-16T05:00:57.181Z,30.01
2022-08-16T05:03:26.227Z,29.95
2022-08-16T05:05:58.898Z,30.01
2022-08-16T05:08:31.601Z,30.25
2022-08-16T05:11:09.006Z,30.47
2022-08-16T05:13:42.604Z,30.77
2022-08-16T05:16:23.290Z,31.05
2022-08-16T05:18:56.594Z,31.32
2022-08-16T05:21:38.015Z,31.54
2022-08-16T05:24:09.374Z,31.76
2022-08-16T05:26:43.299Z,31.90
2022-08-16T05:29:17.493Z,32.04
2022-08-16T05:31:53.249Z,32.19
2022-08-16T05:34:22.337Z,32.36
2022-08-16T05:36:51.529Z,32.50
2022-08-16T05:39:20.708Z,32.63
2022-08-16T05:41:52.725Z,32.35
2022-08-16T05:44:24.995Z,31.58
2022-08-16T05:47:00.965Z,30.58
2022-08-16T05:49:39.277Z,29.55
2022-08-16T05:52:13.418Z,28.70
2022-08-16T05:54:47.140Z,28.00
2022-08-16T05:57:18.070Z,27.42
2022-08-16T05:59:47.609Z,26.93
2022-08-16T06:02:21.925Z,26.81
2022-08-16T06:04:56.924Z,27.45
2022-08-16T06:07:26.606Z,27.91
2022-08-16T06:09:58.382Z,28.15
2022-08-16T06:12:29.933Z,28.27
2022-08-16T06:15:04.547Z,28.38
2022-08-16T06:17:43.914Z,28.45
2022-08-16T06:20:23.641Z,28.54
2022-08-16T06:23:03.034Z,28.61
2022-08-16T06:25:36.053Z,28.71
2022-08-16T06:28:16.862Z,28.39
2022-08-16T06:31:02.040Z,27.68
2022-08-16T06:33:30.005Z,27.34
2022-08-16T06:36:14.339Z,27.73
2022-08-16T06:38:55.647Z,28.19
2022-08-16T06:41:27.411Z,28.60
2022-08-16T06:43:56.764Z,28.39
2022-08-16T06:46:31.591Z,27.81
2022-08-16T06:49:06.497Z,27.57
2022-08-16T06:51:48.127Z,28.05
2022-08-16T06:54:16.938Z,28.59
2022-08-16T06:56:47.181Z,29.02
2022-08-16T06:59:20.317Z,29.36
2022-08-16T07:01:58.045Z,29.49
2022-08-16T07:04:31.929Z,29.06
2022-08-16T07:07:02.948Z,28.54
2022-08-16T07:09:33.839Z,28.11
2022-08-16T07:12:05.678Z,27.74
2022-08-16T07:14:34.985Z,27.63
2022-08-16T07:17:03.526Z,28.16
2022-08-16T07:20:03.599Z,28.60
2022-08-16T07:22:36.699Z,28.93
2022-08-16T07:25:08.138Z,28.60
2022-08-16T07:27:37.339Z,28.14
2022-08-16T07:30:38.826Z,27.86
2022-08-16T07:32:58.822Z,27.69
2022-08-16T07:35:27.274Z,27.59
2022-08-16T07:37:55.308Z,27.53
2022-08-16T07:40:42.790Z,27.50
2022-08-16T07:43:11.278Z,27.84
2022-08-16T07:45:39.191Z,28.64
2022-08-16T07:48:12.379Z,29.16
2022-08-16T07:50:56.660Z,28.97
2022-08-16T07:53:34.049Z,28.54
2022-08-16T07:56:11.478Z,28.27
2022-08-16T07:58:39.636Z,28.10
2022-08-16T08:01:10.572Z,27.98
2022-08-16T08:03:48.194Z,27.93
2022-08-16T08:06:21.444Z,27.93
2022-08-16T08:08:56.966Z,27.89
2022-08-16T08:11:29.840Z,27.84
2022-08-16T08:14:03.531Z,28.16
2022-08-16T08:16:33.629Z,28.94
2022-08-16T08:19:04.937Z,29.48
2022-08-16T08:22:01.493Z,29.40
2022-08-16T08:24:31.797Z,29.20
2022-08-16T08:27:04.823Z,29.09
2022-08-16T08:29:40.554Z,29.02
2022-08-16T08:32:57.293Z,29.02
2022-08-16T08:35:03.947Z,29.06
2022-08-16T08:37:55.246Z,29.09
2022-08-16T08:40:27.415Z,29.14
2022-08-16T08:43:00.850Z,29.20
2022-08-16T08:45:49.282Z,29.24
2022-08-16T08:48:34.312Z,29.26
2022-08-16T08:51:09.438Z,29.34
2022-08-16T08:53:39.877Z,29.48
2022-08-16T08:56:23.008Z,29.55
2022-08-16T08:58:59.239Z,29.61
2022-08-16T09:01:42.521Z,29.73
2022-08-16T09:04:14.847Z,29.89
2022-08-16T09:06:45.782Z,29.99
2022-08-16T09:09:16.956Z,30.09
2022-08-16T09:11:53.804Z,30.23
2022-08-16T09:14:39.051Z,30.34
2022-08-16T09:17:38.397Z,30.39
2022-08-16T09:20:08.214Z,30.47
2022-08-16T09:22:37.493Z,30.53
2022-08-16T09:25:13.045Z,30.62
2022-08-16T09:27:57.770Z,30.73
2022-08-16T09:30:43.896Z,30.82
2022-08-16T09:33:20.052Z,30.84
2022-08-16T09:35:52.915Z,30.89
2022-08-16T09:38:32.433Z,30.98
2022-08-16T09:41:14.786Z,31.12
2022-08-16T09:43:59.470Z,31.24
2022-08-16T09:46:49.021Z,31.38
2022-08-16T09:49:19.875Z,31.56
2022-08-16T09:51:55.593Z,31.75
2022-08-16T09:54:32.504Z,31.88
2022-08-16T09:57:02.469Z,31.93
2022-08-16T09:59:38.500Z,31.97
2022-08-16T10:02:27.459Z,32.02
2022-08-16T10:04:57.936Z,32.03
2022-08-16T10:07:49.065Z,32.00
2022-08-16T10:10:18.798Z,31.99
2022-08-16T10:13:16.583Z,32.07
2022-08-16T10:15:53.382Z,32.22
2022-08-16T10:18:56.811Z,32.31
2022-08-16T10:21:12.177Z,32.35
2022-08-16T10:23:40.591Z,32.30
2022-08-16T10:27:17.976Z,32.20
2022-08-16T10:29:04.879Z,32.15
2022-08-16T10:31:43.434Z,32.19
2022-08-16T10:34:30.802Z,32.25
2022-08-16T10:37:02.387Z,32.33
2022-08-16T10:39:40.878Z,32.36
2022-08-16T10:42:13.295Z,32.40
2022-08-16T10:44:42.272Z,32.44
2022-08-16T10:47:11.743Z,32.46
2022-08-16T10:49:39.588Z,32.53
2022-08-16T10:52:18.674Z,32.57
2022-08-16T10:57:35.348Z,32.52
2022-08-16T11:00:20.867Z,32.50
2022-08-16T11:02:58.363Z,32.58
2022-08-16T11:08:31.329Z,32.88
2022-08-16T11:11:12.751Z,33.03
2022-08-16T11:14:10.850Z,33.13
2022-08-16T11:19:24.910Z,32.76
2022-08-16T11:24:44.982Z,32.66
2022-08-16T11:27:23.541Z,32.67
2022-08-16T11:29:56.018Z,32.57
2022-08-16T11:32:31.956Z,32.45
2022-08-16T11:35:14.901Z,32.46
2022-08-16T11:38:46.621Z,32.56
2022-08-16T11:40:56.943Z,32.57
2022-08-16T11:43:34.098Z,32.39
2022-08-16T11:46:43.482Z,32.33
2022-08-16T11:48:56.378Z,32.53
2022-08-16T11:51:24.387Z,32.73
2022-08-16T11:53:53.224Z,32.92
2022-08-16T11:56:39.565Z,33.10
2022-08-16T11:59:10.597Z,33.22
2022-08-16T12:01:44.185Z,33.28
2022-08-16T12:04:24.047Z,33.35
2022-08-16T12:06:54.644Z,33.33
2022-08-16T12:09:24.926Z,33.19
2022-08-16T12:12:03.064Z,32.96
2022-08-16T12:14:35.344Z,32.88
2022-08-16T12:17:09.410Z,32.94
2022-08-16T12:19:38.578Z,33.05
2022-08-16T12:22:18.605Z,33.20
2022-08-16T12:24:52.865Z,33.35
2022-08-16T12:27:26.319Z,33.53
2022-08-16T12:29:58.398Z,33.75
2022-08-16T12:32:39.450Z,33.89
2022-08-16T12:35:20.746Z,33.93
2022-08-16T12:37:50.063Z,33.95
2022-08-16T12:40:34.157Z,33.88
2022-08-16T12:43:07.993Z,33.65
2022-08-16T12:45:45.028Z,33.45
2022-08-16T12:48:37.708Z,33.31
2022-08-16T12:51:20.065Z,33.33
2022-08-16T12:53:56.419Z,33.39
2022-08-16T12:56:33.648Z,33.35
2022-08-16T12:59:14.743Z,33.15
2022-08-16T13:01:50.633Z,32.93
2022-08-16T13:04:33.170Z,32.69
2022-08-16T13:07:04.939Z,32.51
2022-08-16T13:09:43.265Z,32.35
2022-08-16T13:12:20.081Z,32.30
2022-08-16T13:14:51.707Z,32.35
2022-08-16T13:17:26.273Z,32.45
2022-08-16T13:20:11.315Z,32.58
2022-08-16T13:22:55.217Z,32.54
2022-08-16T13:25:26.516Z,32.42
2022-08-16T13:28:14.854Z,32.24
2022-08-16T13:30:52.623Z,32.13
2022-08-16T13:33:39.498Z,32.09
2022-08-16T13:36:38.447Z,32.12
2022-08-16T13:39:13.800Z,32.15
2022-08-16T13:41:42.257Z,32.05
2022-08-16T13:44:10.961Z,31.91
2022-08-16T13:46:51.609Z,31.81
2022-08-16T13:49:22.088Z,31.80
2022-08-16T13:51:51.145Z,31.87
2022-08-16T13:54:19.094Z,32.01
2022-08-16T13:56:46.872Z,32.13
2022-08-16T13:59:20.238Z,32.16
2022-08-16T14:01:59.821Z,32.16
2022-08-16T14:04:35.418Z,32.18
2022-08-16T14:07:09.447Z,32.20
2022-08-16T14:09:38.599Z,32.24
2022-08-16T14:12:25.404Z,32.28
2022-08-16T14:14:57.272Z,32.22
2022-08-16T14:17:27.657Z,32.09
2022-08-16T14:19:59.731Z,31.92
2022-08-16T14:22:35.997Z,31.74
2022-08-16T14:25:16.872Z,31.57
2022-08-16T14:27:47.421Z,31.39
2022-08-16T14:30:19.725Z,31.25
2022-08-16T14:32:50.827Z,31.13
2022-08-16T14:35:29.387Z,31.02
2022-08-16T14:38:18.376Z,30.89
2022-08-16T14:40:53.206Z,30.81
2022-08-16T14:43:29.844Z,30.73
2022-08-16T14:46:03.164Z,30.66
2022-08-16T14:48:35.985Z,30.58
2022-08-16T14:51:04.307Z,30.51
2022-08-16T14:53:38.026Z,30.43
2022-08-16T14:56:09.052Z,30.38
2022-08-16T14:58:55.370Z,30.35
2022-08-16T15:01:58.134Z,30.25
2022-08-16T15:04:39.806Z,29.92
2022-08-16T15:07:13.666Z,29.53
2022-08-16T15:10:01.026Z,29.21
2022-08-16T15:12:34.025Z,28.85
2022-08-16T15:15:16.692Z,28.48
2022-08-16T15:17:57.502Z,27.97
2022-08-16T15:20:53.479Z,27.40
2022-08-16T15:23:33.902Z,26.81
2022-08-16T15:26:34.642Z,26.31
2022-08-16T15:30:09.145Z,25.76
2022-08-16T15:33:23.553Z,25.26
2022-08-16T15:35:58.517Z,24.84
2022-08-16T15:38:43.525Z,24.48
2022-08-16T15:41:42.782Z,24.32
2022-08-16T15:44:23.642Z,24.69
2022-08-16T15:47:43.235Z,24.73
2022-08-16T15:51:26.763Z,24.36
2022-08-16T15:54:31.011Z,24.05
2022-08-16T15:57:16.875Z,23.98
2022-08-16T15:59:52.555Z,24.00
2022-08-16T16:02:30.835Z,24.01
2022-08-16T16:05:09.575Z,24.06
2022-08-16T16:07:41.046Z,24.09
2022-08-16T16:10:35.370Z,24.11
2022-08-16T16:13:26.988Z,24.14
2022-08-16T16:16:16.682Z,24.17
2022-08-16T16:19:33.228Z,24.09
2022-08-16T16:26:23.133Z,24.09
2022-08-16T16:29:08.122Z,24.23
2022-08-16T16:31:59.783Z,24.29
2022-08-16T16:34:32.259Z,24.33
2022-08-16T16:37:01.515Z,24.42
2022-08-16T16:39:32.590Z,24.53
2022-08-16T16:42:01.355Z,24.55
2022-08-16T16:44:36.296Z,24.55
2022-08-16T16:47:04.531Z,24.59
2022-08-16T16:49:33.840Z,24.62
2022-08-16T16:52:06.552Z,24.64
2022-08-16T16:54:35.824Z,24.71
2022-08-16T16:57:04.311Z,24.84
2022-08-16T16:59:32.120Z,24.90
2022-08-16T17:02:41.545Z,24.83
2022-08-16T17:04:48.847Z,24.83
2022-08-16T17:07:17.284Z,24.90
2022-08-16T17:09:47.229Z,24.99
2022-08-16T17:12:23.579Z,25.05
2022-08-16T17:14:55.264Z,25.06
2022-08-16T17:17:23.869Z,25.10
2022-08-16T17:19:52.463Z,25.09
2022-08-16T17:22:23.448Z,25.02
2022-08-16T17:24:53.678Z,24.98
2022-08-16T17:27:34.179Z,24.93
2022-08-16T17:30:15.923Z,24.82
2022-08-16T17:32:54.339Z,24.76
2022-08-16T17:35:34.086Z,24.76
2022-08-16T17:38:07.574Z,24.70
2022-08-16T17:40:55.176Z,24.67
2022-08-16T17:43:33.306Z,24.64
2022-08-16T17:46:03.043Z,24.62
2022-08-16T17:48:31.915Z,24.61
2022-08-16T17:51:00.327Z,24.58
2022-08-16T17:53:29.769Z,24.70
2022-08-16T17:55:58.252Z,24.82
2022-08-16T17:58:27.109Z,24.88
2022-08-16T18:00:59.949Z,24.88
2022-08-16T18:04:07.713Z,24.96
2022-08-16T18:06:25.863Z,25.00
2022-08-16T18:09:01.638Z,25.07
2022-08-16T18:11:34.075Z,25.07
2022-08-16T18:14:02.216Z,25.08
2022-08-16T18:16:30.429Z,25.10
2022-08-16T18:19:00.102Z,25.16
2022-08-16T18:21:47.575Z,25.26
2022-08-16T18:24:15.682Z,25.22
2022-08-16T18:26:43.769Z,25.13
2022-08-16T18:29:12.722Z,25.07
2022-08-16T18:31:42.909Z,25.12
2022-08-16T18:34:10.986Z,25.18
2022-08-16T18:36:39.024Z,25.21
2022-08-16T18:39:07.278Z,25.20
2022-08-16T18:41:37.438Z,25.24
2022-08-16T18:44:26.632Z,25.31
2022-08-16T18:46:56.203Z,25.28
2022-08-16T18:49:24.711Z,25.25
2022-08-16T18:51:58.747Z,25.26
2022-08-16T18:54:28.826Z,25.22
2022-08-16T18:56:59.176Z,25.22
2022-08-16T18:59:30.405Z,25.29
2022-08-16T19:02:05.078Z,25.26
2022-08-16T19:04:55.916Z,25.31
2022-08-16T19:07:30.606Z,25.44
2022-08-16T19:10:05.114Z,25.59
2022-08-16T19:12:38.123Z,25.73
2022-08-16T19:15:20.622Z,25.85
2022-08-16T19:17:49.258Z,25.94
2022-08-16T19:20:23.636Z,25.92
2022-08-16T19:23:05.777Z,25.93
2022-08-16T19:25:49.008Z,25.95
2022-08-16T19:28:49.841Z,26.02
2022-08-16T19:31:30.013Z,26.10
2022-08-16T19:33:59.228Z,26.19
2022-08-16T19:36:35.047Z,26.25
2022-08-16T19:39:15.708Z,26.29
2022-08-16T19:41:53.132Z,26.28
2022-08-16T19:44:23.367Z,26.20
2022-08-16T19:46:51.881Z,26.10
2022-08-16T19:49:19.847Z,25.99
2022-08-16T19:51:48.730Z,25.91
2022-08-16T19:54:17.179Z,25.90
2022-08-16T19:56:45.174Z,25.90
2022-08-16T19:59:19.871Z,25.91
2022-08-16T20:01:52.768Z,25.86
2022-08-16T20:04:22.905Z,25.84
2022-08-16T20:06:53.562Z,25.87
2022-08-16T20:09:23.591Z,25.91
2022-08-16T20:11:54.812Z,25.98
2022-08-16T20:14:25.161Z,26.06
2022-08-16T20:16:59.589Z,26.01
2022-08-16T20:19:36.138Z,25.98
2022-08-16T20:22:35.628Z,26.00
2022-08-16T20:25:11.514Z,26.06
2022-08-16T20:27:41.150Z,26.06
2022-08-16T20:30:15.098Z,25.99
2022-08-16T20:32:45.893Z,25.90
2022-08-16T20:35:17.972Z,25.76
2022-08-16T20:37:47.910Z,25.70
2022-08-16T20:40:34.666Z,25.74
2022-08-16T20:43:11.676Z,25.72
2022-08-16T20:45:43.652Z,25.61
2022-08-16T20:48:12.659Z,25.48
2022-08-16T20:50:41.499Z,25.34
2022-08-16T20:53:10.362Z,25.21
2022-08-16T20:55:40.710Z,25.18
2022-08-16T20:58:08.739Z,25.20
2022-08-16T21:00:37.427Z,25.23
2022-08-16T21:03:11.625Z,25.24
2022-08-16T21:05:40.327Z,25.30
2022-08-16T21:08:50.930Z,25.38
2022-08-16T21:10:57.912Z,25.44
2022-08-16T21:13:25.855Z,25.47
2022-08-16T21:15:54.162Z,25.40
2022-08-16T21:18:22.345Z,25.30
2022-08-16T21:20:51.351Z,25.14
2022-08-16T21:23:20.128Z,24.91
2022-08-16T21:25:58.312Z,24.86
2022-08-16T21:28:41.100Z,24.83
2022-08-16T21:31:13.027Z,24.86
2022-08-16T21:33:42.793Z,24.94
2022-08-16T21:36:12.113Z,24.99
2022-08-16T21:38:40.679Z,25.00
2022-08-16T21:41:13.221Z,24.97
2022-08-16T21:43:41.680Z,24.84
2022-08-16T21:46:09.584Z,24.72
2022-08-16T21:48:40.732Z,24.61
2022-08-16T21:51:14.608Z,24.39
2022-08-16T21:53:44.152Z,24.46
2022-08-16T21:56:16.601Z,24.81
2022-08-16T21:58:46.483Z,25.33
2022-08-16T22:01:25.107Z,25.82
2022-08-16T22:04:27.174Z,25.94
2022-08-16T22:06:43.179Z,26.01
2022-08-16T22:09:15.590Z,26.08
2022-08-16T22:11:44.980Z,26.16
2022-08-16T22:14:13.013Z,26.28
2022-08-16T22:16:41.989Z,26.40
2022-08-16T22:19:11.712Z,26.52
2022-08-16T22:21:39.528Z,26.53
2022-08-16T22:24:07.711Z,26.49
2022-08-16T22:26:42.783Z,26.37
2022-08-16T22:29:14.806Z,26.23
2022-08-16T22:31:44.523Z,26.13
2022-08-16T22:34:13.867Z,26.06
2022-08-16T22:36:42.553Z,25.95
2022-08-16T22:39:14.211Z,25.96
2022-08-16T22:41:45.760Z,26.06
2022-08-16T22:44:13.817Z,26.12
2022-08-16T22:46:41.652Z,26.17
2022-08-16T22:49:10.819Z,26.18
2022-08-16T22:51:39.134Z,26.19
2022-08-16T22:54:47.429Z,26.13
2022-08-16T22:56:56.653Z,26.29
2022-08-16T22:59:25.381Z,26.59
2022-08-16T23:01:53.701Z,26.62
2022-08-16T23:04:22.551Z,25.70
2022-08-16T23:06:51.607Z,24.82
2022-08-16T23:09:19.726Z,24.88
2022-08-16T23:11:49.666Z,25.24
2022-08-16T23:14:29.037Z,25.40
2022-08-16T23:19:43.138Z,25.22
2022-08-16T23:22:10.899Z,25.15
2022-08-16T23:24:56.156Z,25.08
2022-08-16T23:27:24.282Z,24.98
2022-08-16T23:29:52.822Z,24.95
2022-08-16T23:32:20.594Z,24.91
2022-08-16T23:34:48.442Z,24.85
2022-08-16T23:37:20.858Z,24.77
2022-08-16T23:39:48.714Z,24.69
2022-08-16T23:42:52.838Z,24.54
2022-08-16T23:45:11.157Z,24.37
2022-08-16T23:47:38.917Z,24.31
2022-08-16T23:50:06.926Z,24.29
2022-08-16T23:52:54.789Z,24.25
2022-08-16T23:55:23.286Z,24.41
2022-08-16T23:57:52.871Z,24.51
